1. Check if you meet the minimum entry requirements (check courses).
  2. Contact us if you have any further questions.
  3. Submit a ditailed application form of your preferred course.
  4. Complete and successfully pass the appropriate course assessment.
  5. Arrange your course funding.
  6. Obtain a Medical Certificate from a medical examiner approved by the relevant national aviation authority.
  7. Book a course and make the deposit to secure your place.
  8. Commence training.
  9. Take your Pilot's Licence

Student's Login

Local Time

LGIR WEATHER

[source: ADDS]
METAR
LGIR 191320Z 34005KT 9999 FEW020 BKN090 15/10 Q1013 NOSIG =
TAF
TAF LGIR 191100Z 1912/2012 VRB05KT 9999 SCT020 BKN080 BECMG 1912/1914 30010KT BECMG 1918/1920 18010KT TEMPO 1912/1921 BKN020 BKN070 =

Czech sport aircraft

Cretan Eagle Aviation Ltd. is proud to be appointed as an authorized Czech Sport Aircraft Promoter for Greece
and Cyprus. Please click on the link or give us a call for any additional information on Czech Sport Aircraft.

 

 

On-line PPL QUIZ

Student members can join our free on-line database to practice on PPL quizzes and get ready for the real
exams. Becoming a member and getting access to our system is FREE for all of our students.

 

Paypal Verified

Payments for any Course can be made by Bank Transfer, Cash and PayPal secure payment.

 

Go to top